Date,TemperatureHighF,TemperatureAvgF,TemperatureLowF,DewpointHighF,DewpointAvgF,DewpointLowF,HumidityHigh,HumidityAvg,HumidityLow,PressureMaxIn,PressureMinIn,WindSpeedMaxMPH,WindSpeedAvgMPH,GustSpeedMaxMPH,PrecipitationSumIn
2013-1-1,54,49,44,53,46,37,97,87,77,0.00,40.00,11,7,19,1.08
2013-1-2,44,40,37,37,33,31,86,76,69,0.00,40.00,9,6,15,0.01
2013-1-3,53,41,28,33,30,27,95,68,38,0.00,40.00,10,4,14,0.00
2013-1-4,50,45,41,40,35,31,89,70,51,0.00,40.00,6,3,11,0.14
2013-1-5,46,44,42,44,41,36,95,90,68,0.00,40.00,4,2,7,0.25
2013-1-6,59,45,35,43,39,34,97,82,43,0.00,40.00,7,4,16,0.03
2013-1-7,56,42,29,40,34,28,96,76,41,0.00,40.00,8,3,13,0.00
2013-1-8,60,54,47,59,50,39,98,88,69,0.00,40.00,8,5,13,1.04
2013-1-9,65,62,59,63,61,58,99,96,93,0.00,40.00,15,6,27,0.99
2013-1-10,69,61,47,63,54,43,98,80,43,0.00,40.00,8,3,17,0.04
2013-1-11,73,57,40,61,48,39,98,75,39,0.00,40.00,7,3,13,0.01
2013-1-12,75,70,64,70,67,61,99,90,76,0.00,40.00,9,5,20,0.17
2013-1-13,64,43,38,63,38,32,97,82,64,0.00,40.00,14,9,24,1.54
2013-1-14,43,38,35,35,32,28,88,77,67,0.00,40.00,10,7,19,0.04
2013-1-15,35,34,32,32,30,28,93,88,79,0.00,40.00,10,6,17,0.21
2013-1-16,49,39,30,33,27,16,92,66,28,0.00,40.00,12,6,19,0.01
2013-1-17,62,39,25,37,30,24,94,74,33,0.00,40.00,10,2,16,0.00
2013-1-18,62,43,30,42,33,28,96,72,28,0.00,40.00,6,2,11,0.00
2013-1-19,66,46,32,45,38,31,97,78,37,0.00,40.00,4,2,9,0.00
2013-1-20,70,49,36,54,43,35,98,84,44,0.00,40.00,3,1,10,0.00
2013-1-21,72,54,39,53,45,38,97,76,45,0.00,40.00,5,2,10,0.00
2013-1-22,70,52,40,49,42,34,96,71,46,0.00,40.00,5,3,11,0.00
2013-1-23,74,56,41,59,48,40,98,81,39,0.00,40.00,6,2,12,0.00
2013-1-24,71,62,51,62,58,50,99,89,68,0.00,40.00,6,3,11,0.00
2013-1-25,77,67,58,62,58,54,94,77,50,0.00,40.00,8,4,13,0.00
2013-1-26,75,62,54,63,58,53,98,86,59,0.00,40.00,8,3,12,0.00
2013-1-27,76,64,51,65,58,50,98,84,62,0.00,40.00,8,4,17,0.02
2013-1-28,78,71,65,65,63,58,93,78,51,0.00,40.00,8,6,21,0.02
2013-1-29,75,70,57,67,65,54,93,83,74,0.00,40.00,11,8,38,0.20
2013-1-30,57,51,35,55,34,24,96,56,33,0.00,40.00,17,7,31,0.24
2013-1-31,65,53,28,36,29,20,96,47,18,0.00,40.00,6,3,13,0.00
2013-2-1,70,54,41,41,37,33,90,58,28,0.00,40.00,5,3,12,0.00
2013-2-2,74,57,44,52,47,41,93,72,46,0.00,40.00,6,3,19,0.00
2013-2-3,71,53,37,47,37,25,96,64,18,0.00,40.00,6,2,12,0.00
2013-2-4,63,55,46,59,50,37,97,83,60,0.00,40.00,6,3,11,0.02
2013-2-5,74,64,59,64,60,57,99,87,60,0.00,40.00,7,3,11,0.01
2013-2-6,63,61,60,61,59,58,97,94,87,0.00,40.00,7,4,14,0.74
2013-2-7,65,60,55,59,57,54,98,90,77,0.00,40.00,4,2,9,0.01
2013-2-8,61,57,51,56,50,48,98,77,63,0.00,40.00,10,6,20,0.00
2013-2-9,63,54,46,59,50,42,95,86,70,0.00,40.00,9,6,19,0.00
2013-2-10,69,63,57,65,55,43,96,76,43,0.00,40.00,8,4,17,0.91
2013-2-11,57,53,51,52,48,44,91,81,66,0.00,40.00,9,5,16,0.29
2013-2-12,56,53,50,53,50,45,97,90,80,0.00,40.00,8,5,16,0.29
2013-2-13,55,47,36,45,39,35,96,75,53,0.00,40.00,10,6,20,0.01
2013-2-14,67,46,31,42,34,29,97,71,24,0.00,40.00,4,1,11,0.00
2013-2-15,60,46,35,39,36,29,95,70,39,0.00,40.00,12,5,21,0.00
2013-2-16,57,44,31,34,26,21,89,53,26,0.00,40.00,12,4,22,0.00
2013-2-17,71,52,31,43,36,30,95,62,24,0.00,40.00,8,4,20,0.00
2013-2-18,70,61,51,63,54,43,94,79,65,0.00,40.00,16,6,30,0.32
2013-2-19,65,52,37,45,33,22,97,59,20,0.00,40.00,9,4,15,0.30
2013-2-20,55,52,46,38,33,29,72,48,39,0.00,40.00,12,7,20,0.04
2013-2-21,74,60,49,68,50,38,98,74,37,0.00,40.00,11,6,19,0.35
2013-2-22,58,50,45,47,45,42,96,82,63,0.00,40.00,8,5,15,0.01
2013-2-23,67,51,37,43,39,32,89,65,37,0.00,40.00,6,3,15,0.00
2013-2-24,69,55,37,46,42,36,97,67,40,0.00,40.00,9,4,15,0.00
2013-2-25,71,60,46,62,43,24,94,60,21,0.00,40.00,11,6,26,0.01
2013-2-26,60,49,42,39,33,29,87,56,36,0.00,40.00,15,7,25,0.01
2013-2-27,63,49,36,43,34,23,96,62,27,0.00,40.00,14,5,26,0.00
2013-2-28,58,45,35,33,27,22,86,53,26,0.00,40.00,11,6,23,0.00
2013-3-1,60,44,30,33,29,22,94,61,25,0.00,40.00,13,5,22,0.00
2013-3-2,51,41,32,30,24,16,85,55,25,0.00,40.00,13,7,24,0.00
2013-3-3,69,48,27,40,29,24,93,56,24,0.00,40.00,7,4,16,0.00
2013-3-4,78,63,48,58,51,40,95,68,41,0.00,40.00,10,6,24,0.00
2013-3-5,65,58,43,60,36,20,89,49,21,0.00,40.00,18,9,32,0.00
2013-3-6,65,48,31,36,25,15,84,47,14,0.00,40.00,7,3,15,0.00
2013-3-7,68,52,34,40,33,29,93,56,23,0.00,40.00,8,3,15,0.00
2013-3-8,71,58,46,53,47,40,86,68,47,0.00,40.00,10,5,17,0.00
2013-3-9,73,65,58,62,57,51,89,77,62,0.00,40.00,10,6,21,0.01
2013-3-10,65,59,47,63,49,35,97,71,40,0.00,40.00,11,7,23,1.36
2013-3-11,59,48,39,33,29,21,79,51,25,0.00,40.00,11,6,21,0.13
2013-3-12,71,49,31,43,33,27,96,63,20,0.00,40.00,6,2,12,0.00
2013-3-13,71,55,40,41,34,24,84,52,18,0.00,40.00,7,3,15,0.00
2013-3-14,75,57,38,48,42,37,95,62,29,0.00,40.00,7,3,13,0.00
2013-3-15,80,63,44,55,47,42,96,61,26,0.00,40.00,7,4,17,0.00
2013-3-16,81,68,56,59,55,51,97,68,35,0.00,40.00,9,6,20,0.00
2013-3-17,81,69,61,64,60,58,94,75,46,0.00,40.00,7,5,16,0.00
2013-3-18,84,73,64,65,61,49,97,70,43,0.00,40.00,9,5,20,0.00
2013-3-19,75,64,54,49,45,39,76,52,36,0.00,40.00,8,6,16,0.00
2013-3-20,71,59,48,48,39,25,92,54,18,0.00,40.00,10,6,21,0.36
2013-3-21,71,58,46,53,43,34,92,60,35,0.00,40.00,9,5,20,0.22
2013-3-22,83,70,62,66,60,53,91,74,47,0.00,40.00,9,4,18,0.00
2013-3-23,64,58,54,57,54,52,93,85,74,0.00,40.00,7,5,15,0.00
2013-3-24,58,52,42,55,37,26,91,60,33,0.00,40.00,17,11,29,0.00
2013-3-25,58,45,34,30,22,16,76,45,19,0.00,40.00,15,7,26,0.00
2013-3-26,59,44,28,32,23,16,88,48,19,0.00,40.00,12,4,20,0.00
2013-3-27,71,47,30,36,30,27,95,63,21,0.00,40.00,7,3,15,0.00
2013-3-28,71,66,60,53,52,51,75,61,52,0.00,40.00,7,4,15,0.00
2013-3-29,75,65,55,60,56,52,95,75,51,0.00,40.00,6,4,15,0.00
2013-3-30,79,68,60,64,58,-100,94,75,48,0.00,40.00,7,4,15,0.33
2013-3-31,72,66,59,63,62,57,93,85,73,0.00,40.00,8,4,22,0.85
2013-4-1,80,67,57,62,58,55,98,76,44,0.00,40.00,6,2,14,0.17
2013-4-2,77,66,60,66,61,56,95,84,55,0.00,40.00,8,4,21,0.43
2013-4-3,64,52,47,63,49,44,97,88,84,0.00,40.00,11,7,21,0.95
2013-4-4,49,47,45,44,42,41,92,83,73,0.00,40.00,10,6,19,0.06
2013-4-5,73,56,40,52,44,39,97,70,36,0.00,40.00,6,3,9,0.00
2013-4-6,77,61,45,55,50,44,97,71,40,0.00,40.00,10,4,20,0.00
2013-4-7,78,67,55,60,57,54,97,72,48,0.00,40.00,8,5,17,0.00
2013-4-8,81,72,65,64,61,58,90,71,45,0.00,40.00,10,7,25,0.00
2013-4-9,86,74,68,70,65,62,93,73,45,0.00,40.00,11,8,25,0.00
2013-4-10,78,65,46,74,60,43,94,86,76,0.00,40.00,11,7,23,0.16
2013-4-11,68,53,43,46,40,35,93,68,31,0.00,40.00,15,6,29,0.42
2013-4-12,78,58,40,51,43,38,97,68,26,0.00,40.00,5,2,9,0.01
2013-4-13,79,62,45,53,47,43,95,64,28,0.00,40.00,9,3,17,0.00
2013-4-14,83,66,51,64,56,50,97,73,45,0.00,40.00,6,2,15,0.00
2013-4-15,88,76,67,69,66,63,90,72,46,0.00,40.00,9,6,16,0.00
2013-4-16,86,77,72,72,69,66,91,77,54,0.00,40.00,9,6,22,0.00
2013-4-17,84,77,74,72,70,67,89,79,56,0.00,40.00,10,7,25,0.00
2013-4-18,75,64,49,69,59,43,93,83,77,0.00,40.00,11,8,22,0.35
2013-4-19,62,51,40,41,32,27,90,52,26,0.00,40.00,13,8,27,0.02
2013-4-20,71,55,36,47,36,30,96,58,23,0.00,40.00,11,4,19,0.00
2013-4-21,73,58,42,50,44,39,94,64,34,0.00,40.00,6,3,15,0.00
2013-4-22,80,64,47,54,50,46,96,66,33,0.00,40.00,7,3,16,0.00
2013-4-23,81,68,56,65,60,52,97,76,50,0.00,40.00,9,4,15,0.00
2013-4-24,66,55,44,55,42,39,86,65,40,0.00,40.00,14,8,25,0.00
2013-4-25,72,62,53,49,43,40,73,53,31,0.00,40.00,9,6,17,0.00
2013-4-26,81,70,60,66,58,43,83,64,50,0.00,40.00,8,5,17,0.00
2013-4-27,86,73,66,69,66,63,95,79,50,0.00,40.00,7,4,14,0.01
2013-4-28,86,74,63,67,62,56,97,71,38,0.00,40.00,4,2,10,0.17
2013-4-29,84,70,56,65,59,55,97,72,40,0.00,40.00,7,3,15,0.01
2013-4-30,80,70,59,72,64,58,97,83,59,0.00,40.00,8,3,18,0.42
2013-5-1,84,73,63,68,64,62,99,78,47,0.00,40.00,6,3,22,0.02
2013-5-2,72,63,48,64,57,40,96,82,70,0.00,40.00,14,7,25,0.00
2013-5-3,64,51,44,40,34,28,74,56,29,0.00,40.00,16,11,29,0.00
2013-5-4,76,58,37,44,36,26,89,51,18,0.00,40.00,11,4,23,0.00
2013-5-5,67,55,43,41,29,21,59,38,22,0.00,40.00,12,5,22,0.00
2013-5-6,79,62,43,52,34,13,94,38,25,0.00,40.00,7,3,15,0.00
2013-5-7,85,70,56,57,43,31,89,42,23,0.00,40.00,5,2,10,0.00
2013-5-8,84,71,56,60,51,35,69,49,37,0.00,40.00,8,4,18,0.00
2013-5-9,75,70,65,69,65,59,95,86,69,0.00,40.00,15,5,24,0.60
2013-5-10,80,71,66,67,66,64,96,84,59,0.00,40.00,7,3,13,0.63
2013-5-11,82,71,62,68,58,-100,97,69,35,0.00,40.00,9,5,17,0.10
2013-5-12,76,65,54,57,50,43,95,63,33,0.00,40.00,8,4,20,0.00
2013-5-13,83,65,47,56,48,44,96,64,26,0.00,40.00,8,2,12,0.00
2013-5-14,84,69,53,61,53,41,96,63,30,0.00,40.00,8,4,19,0.00
2013-5-15,72,67,63,67,63,53,95,88,58,0.00,40.00,10,4,17,0.47
2013-5-16,83,66,64,69,43,-100,95,79,58,0.00,40.00,8,6,18,0.44
2013-5-17,89,77,72,72,63,-100,89,77,57,0.00,40.00,7,5,17,0.03
2013-5-18,92,80,71,73,69,64,94,72,46,0.00,40.00,7,5,18,0.00
2013-5-19,90,80,72,71,68,64,88,68,44,0.00,40.00,10,6,20,0.00
2013-5-20,88,79,73,72,70,69,92,76,55,0.00,40.00,9,6,20,0.00
2013-5-21,89,80,67,73,69,60,94,72,51,0.00,40.00,9,6,30,1.16
2013-5-22,86,74,67,74,69,66,96,84,60,0.00,40.00,6,3,30,1.21
2013-5-23,89,79,71,73,70,68,97,78,55,0.00,40.00,7,3,12,0.00
2013-5-24,88,77,69,73,69,58,96,80,57,0.00,40.00,8,4,25,0.02
2013-5-25,86,76,70,71,69,65,94,80,57,0.00,40.00,7,4,15,0.44
2013-5-26,84,76,71,74,71,67,96,86,68,0.00,40.00,7,4,15,0.60
2013-5-27,88,77,69,73,68,64,97,75,46,0.00,40.00,7,5,17,0.11
2013-5-28,88,79,72,70,67,62,91,70,42,0.00,40.00,10,6,19,0.00
2013-5-29,85,78,72,72,69,67,93,77,61,0.00,40.00,9,6,20,0.00
2013-5-30,88,80,73,72,71,69,92,76,56,0.00,40.00,9,6,19,0.00
2013-5-31,90,82,77,76,73,70,88,75,56,0.00,40.00,8,6,17,0.00
2013-6-1,94,84,78,75,73,71,86,71,47,0.00,40.00,8,5,17,0.00
2013-6-2,83,74,68,73,67,62,96,82,51,0.00,40.00,10,5,18,4.20
2013-6-3,87,75,62,68,64,61,96,72,44,0.00,40.00,5,2,11,0.01
2013-6-4,90,79,68,72,68,65,94,71,47,0.00,40.00,6,3,14,0.00
2013-6-5,92,81,69,74,71,68,96,74,47,0.00,40.00,7,2,11,0.00
2013-6-6,81,74,69,75,71,66,95,89,70,0.00,40.00,11,4,27,1.43
2013-6-7,84,73,66,67,64,55,97,76,41,0.00,40.00,7,4,14,0.01
2013-6-8,87,76,64,70,65,61,95,71,44,0.00,40.00,5,2,12,0.00
2013-6-9,90,76,69,74,70,66,95,83,55,0.00,40.00,6,3,15,0.05
2013-6-10,92,81,70,74,71,68,97,75,47,0.00,40.00,6,3,12,0.05
2013-6-11,93,82,73,77,74,70,96,79,52,0.00,40.00,6,2,11,0.00
2013-6-12,94,83,74,76,74,72,97,77,50,0.00,40.00,4,2,17,0.00
2013-6-13,95,84,75,78,75,72,100,77,47,0.00,40.00,5,2,9,0.00
2013-6-14,97,85,74,80,76,73,100,77,52,0.00,40.00,6,2,11,0.00
2013-6-15,93,82,71,81,75,70,98,81,60,0.00,40.00,7,3,27,0.50
2013-6-16,94,83,74,77,73,70,99,76,47,0.00,40.00,5,3,12,0.16
2013-6-17,94,83,75,77,74,72,99,78,51,0.00,40.00,6,3,13,0.00
2013-6-18,89,81,76,76,73,68,93,78,59,0.00,40.00,8,4,17,0.01
2013-6-19,92,80,72,76,73,71,98,81,58,0.00,40.00,7,3,15,0.01
2013-6-20,92,81,73,76,74,72,99,82,52,0.00,40.00,5,3,10,0.00
2013-6-22,94,88,80,76,73,70,82,61,48,0.00,40.00,6,4,11,0.00
2013-6-23,93,83,73,76,72,71,97,74,51,0.00,40.00,7,4,14,0.00
2013-6-24,92,83,74,77,73,70,98,73,49,0.00,40.00,7,4,14,0.00
2013-6-25,94,84,76,76,74,71,96,73,48,0.00,40.00,7,4,15,0.00
2013-6-26,95,85,75,77,73,71,97,70,46,0.00,40.00,6,4,14,0.00
2013-6-27,96,84,74,76,65,-100,98,69,42,0.00,40.00,5,3,10,0.00
2013-6-28,100,85,73,75,73,71,94,71,40,0.00,40.00,6,2,12,0.00
2013-6-29,101,87,74,75,69,58,95,61,27,0.00,40.00,9,3,20,0.00
2013-6-30,94,81,65,68,60,53,93,54,25,0.00,40.00,11,4,23,0.00
2013-7-1,89,76,62,64,59,54,88,59,33,0.00,40.00,7,3,15,0.00
2013-7-2,83,70,62,66,62,60,93,78,55,0.00,40.00,4,1,6,0.00
2013-7-3,89,78,67,64,63,59,87,61,36,0.00,40.00,5,2,10,0.00
2013-7-4,92,86,82,68,63,60,63,47,37,0.00,40.00,5,3,12,0.00
2013-7-5,93,89,79,68,63,60,53,43,37,0.00,40.00,6,5,12,23.51
2013-7-6,93,81,70,73,68,60,97,69,37,0.00,40.00,7,4,15,0.00
2013-7-7,92,80,72,76,73,69,97,80,52,0.00,40.00,6,3,17,0.08
2013-7-8,90,79,73,76,73,68,98,82,56,0.00,40.00,7,3,15,0.01
2013-7-9,98,83,70,77,72,68,98,73,39,0.00,40.00,6,3,12,0.01
2013-7-10,97,85,74,76,68,-100,97,64,40,0.00,40.00,5,3,11,0.00
2013-7-11,96,82,75,76,72,69,89,73,44,0.00,40.00,6,3,19,0.00
2013-7-12,98,85,72,76,71,66,97,68,39,0.00,40.00,6,3,11,0.00
2013-7-13,97,86,76,71,62,49,77,50,22,0.00,40.00,8,4,14,0.00
2013-7-14,87,78,72,73,68,57,87,70,48,0.00,40.00,7,3,15,0.04
2013-7-15,88,74,71,74,70,69,97,88,59,0.00,40.00,9,3,18,0.62
2013-7-16,92,81,73,75,73,71,97,79,53,0.00,40.00,7,4,11,0.36
2013-7-17,90,80,73,76,74,71,98,83,59,0.00,40.00,7,3,13,0.10
2013-7-18,95,80,72,76,64,-100,98,66,45,0.00,40.00,7,2,15,0.15
2013-7-19,83,76,72,73,71,69,98,85,66,0.00,40.00,6,2,13,0.30
2013-7-20,89,77,71,76,71,-100,99,84,54,0.00,40.00,7,2,13,0.01
2013-7-21,92,79,72,77,74,71,98,85,56,0.00,40.00,5,2,16,0.32
2013-7-22,95,84,75,77,74,71,98,75,46,0.00,40.00,6,4,15,0.32
2013-7-23,96,85,75,77,72,67,97,69,39,0.00,40.00,6,3,20,0.00
2013-7-24,96,82,74,76,73,67,97,76,48,0.00,40.00,11,4,19,0.14
2013-7-25,96,84,73,77,74,69,98,75,42,0.00,40.00,5,2,9,0.14
2013-7-26,94,85,76,76,73,70,95,70,47,0.00,40.00,5,3,12,0.00
2013-7-27,85,80,75,76,72,68,96,77,59,0.00,40.00,8,5,13,0.20
2013-7-28,90,79,68,76,72,67,98,79,57,0.00,40.00,6,2,12,0.16
2013-7-29,96,83,75,76,72,68,98,73,40,0.00,40.00,6,4,15,0.00
2013-7-30,97,84,74,76,71,65,98,69,38,0.00,40.00,7,4,16,0.00
2013-7-31,98,84,74,75,72,63,98,70,32,0.00,40.00,5,3,11,0.00
2013-8-1,102,87,75,77,72,69,95,67,35,0.00,40.00,5,2,19,0.00
2013-8-2,98,86,74,76,72,69,97,68,39,0.00,40.00,6,2,12,0.00
2013-8-3,97,86,74,77,71,65,98,66,37,0.00,40.00,5,2,13,0.00
2013-8-4,99,87,74,78,73,68,97,67,38,0.00,40.00,5,2,13,0.00
2013-8-5,98,87,75,76,72,66,95,64,36,0.00,40.00,7,4,14,0.00
2013-8-6,99,87,75,75,72,68,92,64,37,0.00,40.00,6,4,14,0.00
2013-8-7,100,87,76,76,72,63,95,65,30,0.00,40.00,6,4,14,0.00
2013-8-8,101,87,73,76,69,60,97,62,26,0.00,40.00,6,3,18,0.00
2013-8-9,101,86,72,76,71,64,97,66,32,0.00,40.00,6,2,11,0.00
2013-8-10,100,85,74,78,74,70,94,73,38,0.00,40.00,9,3,38,0.58
2013-8-11,97,82,72,76,72,66,98,76,41,0.00,40.00,9,3,14,0.58
2013-8-12,96,84,74,76,73,69,97,71,43,0.00,40.00,5,2,10,0.00
2013-8-13,101,87,76,77,69,-100,92,61,30,0.00,40.00,7,4,14,0.00
2013-8-14,92,81,77,75,73,70,90,77,51,0.00,40.00,7,3,30,0.03
2013-8-15,90,74,72,74,56,-100,93,63,40,0.00,40.00,6,4,11,0.03
2013-8-16,91,78,68,74,60,-100,81,60,45,0.00,40.00,6,3,17,0.00
2013-8-17,90,78,66,64,56,-100,80,53,28,0.00,40.00,8,5,16,0.00
2013-8-18,93,79,65,71,63,59,91,62,33,0.00,40.00,7,2,14,0.00
2013-8-19,96,78,71,70,54,-100,87,57,29,0.00,40.00,7,2,13,0.00
2013-8-20,94,81,69,73,63,-100,93,60,29,0.00,40.00,7,3,12,0.00
2013-8-21,97,84,69,75,69,62,97,65,34,0.00,40.00,6,2,11,0.00
2013-8-22,99,86,74,75,69,64,88,61,33,0.00,40.00,6,3,13,0.00
2013-8-23,98,85,72,75,70,65,94,65,36,0.00,40.00,6,2,18,0.00
2013-8-24,98,86,74,77,67,-100,91,59,34,0.00,40.00,9,4,18,0.00
2013-8-25,94,83,74,71,69,65,88,64,41,0.00,40.00,12,6,23,0.00
2013-8-26,89,78,73,74,72,68,96,81,50,0.00,40.00,10,4,22,0.10
2013-8-27,91,78,71,74,71,68,98,83,47,0.00,40.00,4,2,12,0.10
2013-8-28,98,91,79,70,66,62,72,47,31,0.00,40.00,6,3,12,0.00
2013-8-29,99,87,75,73,67,60,83,55,29,0.00,40.00,6,4,14,0.00
2013-8-30,100,86,75,77,70,62,96,64,30,0.00,40.00,5,3,13,0.00
2013-8-31,100,85,73,75,68,-100,94,62,35,0.00,40.00,6,3,16,0.00
2013-9-1,99,86,74,74,69,60,91,61,31,0.00,40.00,5,3,16,0.00
2013-9-2,99,82,74,76,72,64,95,73,32,0.00,40.00,7,2,21,0.00
2013-9-3,100,81,73,75,71,63,94,74,33,0.00,40.00,8,2,26,0.25
2013-9-4,94,80,73,77,72,66,96,78,48,0.00,40.00,8,2,26,0.26
2013-9-5,98,83,72,75,71,66,98,72,40,0.00,40.00,4,2,14,0.08
2013-9-6,98,83,71,75,70,61,97,69,31,0.00,40.00,6,2,11,0.00
2013-9-7,95,78,71,75,69,-100,98,78,43,0.00,40.00,6,2,19,0.00
2013-9-8,95,81,67,73,67,60,98,68,34,0.00,40.00,7,2,14,0.00
2013-9-9,94,80,68,75,68,61,98,70,34,0.00,40.00,9,2,16,0.00
2013-9-10,93,81,70,73,67,63,95,68,39,0.00,40.00,9,3,16,0.00
2013-9-11,93,81,70,73,68,64,94,69,40,0.00,40.00,9,2,16,0.00
2013-9-12,95,81,70,74,68,60,97,69,33,0.00,40.00,6,2,15,0.00
2013-9-13,100,82,66,70,66,61,95,63,29,0.00,40.00,8,3,21,0.00
2013-9-14,94,83,74,69,63,-100,76,53,38,0.00,40.00,7,4,16,0.00
2013-9-15,94,81,71,69,65,62,81,61,35,0.00,40.00,6,2,14,0.00
2013-9-16,95,83,71,74,66,57,95,62,29,0.00,40.00,7,2,12,0.00
2013-9-17,94,83,71,75,67,62,86,61,36,0.00,40.00,7,3,15,0.00
2013-9-18,82,75,71,70,69,67,92,81,64,0.00,40.00,0,0,6,0.00
2013-9-19,91,79,73,75,72,66,94,80,53,0.00,40.00,8,3,19,0.34
2013-9-20,78,74,71,76,73,70,98,95,91,0.00,40.00,7,4,16,3.65
2013-9-21,83,74,69,70,63,-100,96,74,51,0.00,40.00,10,6,20,1.54
2013-9-22,84,70,58,57,53,46,84,60,27,0.00,40.00,9,4,16,0.01
2013-9-23,88,72,59,68,60,54,90,67,42,0.00,40.00,5,2,12,0.00
2013-9-24,93,80,68,71,65,56,89,64,30,0.00,40.00,9,3,17,0.00
2013-9-25,93,75,60,65,58,46,98,65,21,0.00,40.00,7,2,15,0.00
2013-9-26,92,74,58,68,62,57,97,72,32,0.00,40.00,5,1,12,0.00
2013-9-27,88,76,63,73,66,62,98,75,49,0.00,40.00,7,3,15,0.00
2013-9-28,88,77,68,75,69,-100,98,80,55,0.00,40.00,8,2,19,0.04
2013-9-29,79,76,73,75,73,72,98,93,83,0.00,40.00,5,2,9,1.55
2013-9-30,86,77,72,73,72,71,99,87,64,0.00,40.00,5,2,9,0.40
2013-10-1,80,77,74,71,71,70,88,82,74,0.00,40.00,5,4,11,0.00
2013-10-2,87,78,72,74,71,69,97,81,57,0.00,40.00,8,4,15,0.00
2013-10-3,88,77,72,78,73,69,99,89,62,0.00,40.00,5,2,19,0.30
2013-10-4,89,78,68,78,72,68,99,84,54,0.00,40.00,6,2,12,0.06
2013-10-5,91,79,64,77,72,56,96,80,55,0.00,40.00,14,4,21,0.01
2013-10-6,79,64,53,55,46,34,85,57,20,0.00,40.00,10,6,20,0.00
2013-10-7,80,62,47,53,45,36,95,63,22,0.00,40.00,6,2,13,0.00
2013-10-8,79,62,48,57,52,47,98,74,39,0.00,40.00,5,2,11,0.00
2013-10-9,81,65,50,60,55,50,100,75,41,0.00,40.00,5,2,10,0.00
2013-10-10,82,71,53,65,60,53,99,73,50,0.00,40.00,8,3,14,0.00
2013-10-11,87,74,60,70,66,60,99,78,54,0.00,40.00,6,3,14,0.00
2013-10-12,85,72,69,76,68,-100,99,91,67,0.00,40.00,12,2,27,0.99
2013-10-13,77,72,69,70,68,67,99,89,75,0.00,40.00,7,4,12,0.17
2013-10-14,82,74,71,71,69,67,94,84,63,0.00,40.00,6,3,12,0.00
2013-10-15,87,75,71,72,71,69,99,87,55,0.00,40.00,6,2,12,0.19
2013-10-16,73,66,60,73,65,59,99,96,91,0.00,40.00,8,5,14,0.52
2013-10-17,73,63,53,59,54,48,99,77,41,0.00,40.00,7,4,14,0.01
2013-10-18,70,60,51,59,56,51,100,86,63,0.00,40.00,6,2,15,0.00
2013-10-19,67,58,46,58,47,-100,98,74,33,0.00,40.00,11,5,22,0.00
2013-10-20,73,54,39,53,47,39,100,80,39,0.00,40.00,5,1,12,0.00
2013-10-21,80,65,50,67,58,50,99,80,52,0.00,40.00,7,2,14,0.00
2013-10-22,73,63,51,63,54,45,98,77,39,0.00,40.00,10,5,17,0.00
2013-10-23,83,61,46,59,51,46,100,77,30,0.00,40.00,4,0,8,0.00
2013-10-24,82,63,48,58,52,47,100,75,30,0.00,40.00,6,2,13,0.00
2013-10-25,71,60,53,55,48,45,98,66,44,0.00,40.00,9,5,17,0.00
2013-10-26,80,61,47,60,50,-100,96,72,43,0.00,40.00,5,2,13,0.00
2013-10-27,72,65,59,63,60,56,99,86,66,0.00,40.00,7,3,21,1.06
2013-10-28,78,66,56,67,60,-100,100,86,65,0.00,40.00,6,2,11,0.01
2013-10-29,82,73,67,69,67,65,99,81,58,0.00,40.00,7,4,16,0.00
2013-10-30,73,70,68,73,68,66,99,95,89,0.00,40.00,10,6,17,1.99
2013-10-31,78,69,53,74,64,44,99,86,36,0.00,40.00,8,3,16,3.39
2013-11-1,76,60,46,59,52,46,100,81,43,0.00,40.00,7,2,12,0.00
2013-11-2,69,59,45,55,41,-100,91,59,23,0.00,40.00,14,6,27,0.00
2013-11-3,65,52,39,48,42,39,99,74,42,0.00,40.00,10,2,15,0.00
2013-11-4,69,54,51,59,35,-100,79,66,3,0.00,40.00,7,4,14,0.00
2013-11-5,76,69,64,68,64,58,91,84,74,0.00,40.00,8,5,16,0.00
2013-11-6,73,64,50,69,61,42,97,90,74,0.00,40.00,11,6,21,0.04
2013-11-7,64,52,41,45,39,36,95,65,36,0.00,40.00,9,5,20,0.04
2013-11-8,66,53,42,50,45,41,99,77,42,0.00,40.00,5,1,14,0.00
2013-11-9,62,54,50,55,48,-100,93,82,72,0.00,40.00,3,1,8,0.01
2013-11-10,71,59,47,53,49,46,97,73,45,0.00,40.00,6,2,11,0.01
2013-11-11,73,57,43,56,50,42,99,81,47,0.00,40.00,4,1,9,0.00
2013-11-12,63,51,42,55,46,33,99,83,62,0.00,40.00,10,5,24,0.01
2013-11-13,54,42,30,33,27,24,95,60,31,0.00,40.00,8,4,15,0.01
2013-11-14,61,45,27,41,34,26,98,69,38,0.00,40.00,7,2,12,0.00
2013-11-15,75,59,46,62,53,39,98,82,58,0.00,40.00,5,2,13,0.01
2013-11-16,79,66,53,72,63,-100,100,92,75,0.00,40.00,6,3,17,0.01
2013-11-17,86,75,65,73,71,65,100,89,64,0.00,40.00,5,2,16,0.05
2013-11-18,78,68,59,67,46,35,100,52,22,0.00,40.00,9,5,18,0.01
2013-11-19,67,59,49,46,40,36,79,50,33,0.00,40.00,10,5,19,0.00
2013-11-20,69,57,40,48,42,36,97,59,38,0.00,40.00,6,3,13,0.00
2013-11-21,76,69,59,70,65,48,96,86,63,0.00,40.00,6,4,15,0.01
2013-11-22,71,53,43,69,52,42,100,96,93,0.00,40.00,11,7,22,1.19
2013-11-23,46,44,43,44,41,-100,98,91,73,0.00,40.00,10,7,21,0.39
2013-11-24,46,41,37,35,28,23,90,60,40,0.00,40.00,11,7,25,0.03
2013-11-25,40,38,36,39,36,34,97,95,90,0.00,40.00,8,5,15,1.63
2013-11-26,41,38,36,40,37,35,98,96,93,0.00,40.00,10,5,19,1.10
2013-11-27,48,37,28,35,28,22,99,74,36,0.00,40.00,10,4,18,0.03
2013-11-28,53,37,27,37,30,26,98,80,40,0.00,40.00,4,1,10,0.00
2013-11-29,61,40,26,40,31,25,98,77,29,0.00,40.00,4,1,9,0.01
2013-11-30,64,48,32,52,40,-100,99,80,55,0.00,40.00,4,1,9,0.01
2013-12-1,67,59,52,58,54,49,92,84,69,0.00,40.00,4,2,12,0.00
2013-12-2,76,62,51,60,56,51,100,85,48,0.00,40.00,4,1,11,0.00
2013-12-3,81,65,50,63,58,50,100,81,47,0.00,40.00,6,2,15,0.00
2013-12-4,79,71,64,69,65,63,95,83,63,0.00,40.00,6,4,15,0.00
2013-12-5,72,52,36,70,48,35,100,88,72,0.00,40.00,12,6,23,0.00
2013-12-6,39,37,32,38,36,29,98,94,89,0.00,40.00,12,8,21,0.17
2013-12-7,35,33,32,32,28,-100,97,87,80,0.00,40.00,9,5,16,0.03
2013-12-8,41,37,33,40,34,30,99,90,85,0.00,40.00,4,2,8,0.01
2013-12-9,40,39,37,40,38,35,99,96,92,0.00,40.00,10,5,17,0.14
2013-12-10,47,38,30,36,29,23,96,74,44,0.00,40.00,11,5,20,0.03
2013-12-11,55,41,27,36,32,26,98,74,44,0.00,40.00,7,2,18,0.00
2013-12-12,54,40,32,36,31,27,96,74,37,0.00,40.00,6,2,12,0.00
2013-12-13,48,43,36,48,38,28,100,86,60,0.00,40.00,6,2,16,0.67
2013-12-14,53,47,39,52,43,-100,100,87,70,0.00,40.00,13,7,26,0.09
2013-12-15,55,40,29,38,31,27,98,74,39,0.00,40.00,10,3,20,0.00
2013-12-16,65,42,26,42,34,25,99,78,32,0.00,40.00,4,1,11,0.00
2013-12-17,71,48,30,45,39,30,99,75,34,0.00,40.00,3,1,9,0.00
2013-12-18,71,51,32,50,41,32,99,73,33,0.00,40.00,5,2,13,0.00
2013-12-19,74,62,49,65,57,48,99,83,65,0.00,40.00,9,4,22,0.00
2013-12-20,76,72,68,70,67,65,96,86,72,0.00,40.00,7,5,19,0.03
2013-12-21,73,66,54,70,63,-100,100,93,88,0.00,40.00,14,5,34,1.01
2013-12-22,55,48,34,55,44,29,100,86,57,0.00,40.00,12,6,22,0.02
2013-12-23,51,38,31,34,29,26,97,74,39,0.00,40.00,7,4,17,0.00
2013-12-24,55,38,25,35,30,24,98,79,38,0.00,40.00,7,1,10,0.00
2013-12-25,58,43,27,44,34,26,98,74,33,0.00,40.00,6,1,10,0.00
2013-12-26,61,47,36,43,39,35,97,78,44,0.00,40.00,4,1,9,0.00
2013-12-27,56,45,37,41,37,29,99,77,36,0.00,40.00,7,1,11,0.00
2013-12-28,58,46,38,42,36,-100,97,73,35,0.00,40.00,3,1,6,0.00
2013-12-29,61,48,33,49,41,33,99,79,45,0.00,40.00,11,2,19,0.00
2013-12-30,46,39,36,37,31,29,84,72,64,0.00,40.00,8,4,19,0.00
2013-12-31,47,38,34,36,32,30,96,80,56,0.00,40.00,6,2,9,0.00
2014-1-1,63,46,33,55,44,32,99,90,70,0.00,40.00,5,1,15,0.00
2014-1-2,57,42,30,56,28,19,97,61,30,0.00,40.00,15,8,29,0.00